sim
Sign-in with your pilot id or email,
or register
Callsign
Passwort

Schedule Details

Flight Number: OEO2007
Departure: Leipzig Halle Airport (EDDP) at 14:10
Arrival: Hamburg Airport (EDDH) at 15:20

Weather Information
Getting current METAR information for EDDP 241420Z 35005KT 1200 R08R/P2000N R08L/P2000N -SN BKN001 00/00 Q0995 R08L/5999// R08R/620195 NOSIG
Getting current METAR information for EDDH 241420Z 19003KT 9999 -RA FEW011 BKN014 03/02 Q0997 TEMPO 4500 -RASN

Schedule Frequency

Route Map